Terminal Aerodrome Forecast
Issued by NWS

Home | Current Version | Previous Version | Text Only | Print | Product List | Glossary On
Versions: 1 2 3 4 5 6 7 8 9 10 11 12 13 14 15 16 17 18 19 20 21 22 23 24 25 26 27
000
FTUS41 KRNK 280520
TAFBCB
TAF
KBCB 280520Z 2806/2906 00000KT P6SM SCT050 BKN100
     FM281100 00000KT P6SM -RA SCT020 OVC040
     FM281600 VRB03KT 5SM -RA BR OVC025
     FM282000 32003KT 3SM -RA BR SCT007 OVC015
     FM290100 29002KT 1SM -RA BR SCT003 OVC007=

USA.gov is the U.S. government's official web portal to all federal, state and local government web resources and services.